sensor_id;sensor_type;location;lat;lon;timestamp;pressure;altitude;pressure_sealevel;temperature;humidity
46690;BME280;32423;45.398;10.874;2023-05-02T00:01:08;100537.78;;;14.78;70.63
46690;BME280;32423;45.398;10.874;2023-05-02T00:04:00;100534.63;;;14.76;70.89
46690;BME280;32423;45.398;10.874;2023-05-02T00:06:52;100537.13;;;14.81;70.76
46690;BME280;32423;45.398;10.874;2023-05-02T00:09:39;100533.25;;;14.70;70.25
46690;BME280;32423;45.398;10.874;2023-05-02T00:12:31;100521.53;;;14.70;70.00
46690;BME280;32423;45.398;10.874;2023-05-02T00:15:23;100508.03;;;14.77;69.19
46690;BME280;32423;45.398;10.874;2023-05-02T00:18:15;100495.28;;;14.69;69.20
46690;BME280;32423;45.398;10.874;2023-05-02T00:21:07;100476.84;;;14.66;68.89
46690;BME280;32423;45.398;10.874;2023-05-02T00:24:00;100475.78;;;14.70;68.61
46690;BME280;32423;45.398;10.874;2023-05-02T00:26:52;100465.00;;;14.62;68.60
46690;BME280;32423;45.398;10.874;2023-05-02T00:29:44;100455.41;;;14.68;68.70
46690;BME280;32423;45.398;10.874;2023-05-02T00:32:36;100456.72;;;14.74;68.60
46690;BME280;32423;45.398;10.874;2023-05-02T00:35:28;100458.66;;;14.73;67.55
46690;BME280;32423;45.398;10.874;2023-05-02T00:38:20;100451.63;;;14.72;67.93
46690;BME280;32423;45.398;10.874;2023-05-02T00:41:12;100450.09;;;14.75;68.50
46690;BME280;32423;45.398;10.874;2023-05-02T00:44:04;100448.72;;;14.81;67.52
46690;BME280;32423;45.398;10.874;2023-05-02T00:46:56;100438.09;;;14.79;66.96
46690;BME280;32423;45.398;10.874;2023-05-02T00:49:49;100445.19;;;14.80;66.42
46690;BME280;32423;45.398;10.874;2023-05-02T00:52:41;100436.16;;;14.80;66.61
46690;BME280;32423;45.398;10.874;2023-05-02T00:55:33;100440.97;;;14.83;67.12
46690;BME280;32423;45.398;10.874;2023-05-02T00:58:25;100438.91;;;14.80;67.34
46690;BME280;32423;45.398;10.874;2023-05-02T01:01:21;100431.56;;;14.84;66.82
46690;BME280;32423;45.398;10.874;2023-05-02T01:07:34;100426.91;;;14.84;66.87
46690;BME280;32423;45.398;10.874;2023-05-02T01:13:30;100427.94;;;14.80;66.91
46690;BME280;32423;45.398;10.874;2023-05-02T01:16:20;100438.66;;;14.85;66.89
46690;BME280;32423;45.398;10.874;2023-05-02T01:19:18;100437.59;;;14.89;67.43
46690;BME280;32423;45.398;10.874;2023-05-02T01:22:12;100434.78;;;14.86;67.63
46690;BME280;32423;45.398;10.874;2023-05-02T01:31:37;100457.19;;;14.76;68.54
46690;BME280;32423;45.398;10.874;2023-05-02T01:34:29;100449.75;;;14.76;69.94
46690;BME280;32423;45.398;10.874;2023-05-02T01:37:23;100439.94;;;14.75;69.47
46690;BME280;32423;45.398;10.874;2023-05-02T01:40:17;100432.88;;;14.74;69.69
46690;BME280;32423;45.398;10.874;2023-05-02T01:43:09;100431.41;;;14.77;69.77
46690;BME280;32423;45.398;10.874;2023-05-02T01:46:02;100433.69;;;14.75;69.82
46690;BME280;32423;45.398;10.874;2023-05-02T01:48:53;100428.66;;;14.77;69.83
46690;BME280;32423;45.398;10.874;2023-05-02T01:51:48;100431.41;;;14.77;69.46
46690;BME280;32423;45.398;10.874;2023-05-02T01:54:41;100433.44;;;14.80;69.70
46690;BME280;32423;45.398;10.874;2023-05-02T01:57:33;100430.09;;;14.86;69.16
46690;BME280;32423;45.398;10.874;2023-05-02T02:00:26;100422.13;;;14.81;69.27
46690;BME280;32423;45.398;10.874;2023-05-02T02:03:19;100425.31;;;14.83;69.72
46690;BME280;32423;45.398;10.874;2023-05-02T02:06:13;100431.16;;;14.82;69.32
46690;BME280;32423;45.398;10.874;2023-05-02T02:09:06;100433.88;;;14.82;69.45
46690;BME280;32423;45.398;10.874;2023-05-02T02:12:06;100435.28;;;14.76;69.18
46690;BME280;32423;45.398;10.874;2023-05-02T02:15:31;100435.75;;;14.78;69.07
46690;BME280;32423;45.398;10.874;2023-05-02T02:18:21;100430.25;;;14.78;69.07
46690;BME280;32423;45.398;10.874;2023-05-02T02:21:14;100435.19;;;14.72;69.35
46690;BME280;32423;45.398;10.874;2023-05-02T02:24:08;100441.47;;;14.73;69.65
46690;BME280;32423;45.398;10.874;2023-05-02T02:27:00;100439.88;;;14.72;69.88
46690;BME280;32423;45.398;10.874;2023-05-02T02:29:53;100442.06;;;14.66;70.14
46690;BME280;32423;45.398;10.874;2023-05-02T02:32:43;100434.13;;;14.77;69.52
46690;BME280;32423;45.398;10.874;2023-05-02T02:35:35;100435.78;;;14.66;69.90
46690;BME280;32423;45.398;10.874;2023-05-02T02:38:28;100444.25;;;14.61;69.89
46690;BME280;32423;45.398;10.874;2023-05-02T02:41:26;100438.84;;;14.64;69.46
46690;BME280;32423;45.398;10.874;2023-05-02T02:47:43;100437.16;;;14.60;70.29
46690;BME280;32423;45.398;10.874;2023-05-02T02:53:45;100422.81;;;14.63;69.72
46690;BME280;32423;45.398;10.874;2023-05-02T02:56:41;100413.59;;;14.55;70.94
46690;BME280;32423;45.398;10.874;2023-05-02T02:59:36;100424.88;;;14.53;70.58
46690;BME280;32423;45.398;10.874;2023-05-02T03:02:29;100428.78;;;14.52;70.55
46690;BME280;32423;45.398;10.874;2023-05-02T03:05:22;100427.53;;;14.50;70.61
46690;BME280;32423;45.398;10.874;2023-05-02T03:08:14;100427.22;;;14.39;70.58
46690;BME280;32423;45.398;10.874;2023-05-02T03:11:06;100431.09;;;14.38;70.54
46690;BME280;32423;45.398;10.874;2023-05-02T03:13:57;100431.09;;;14.38;70.58
46690;BME280;32423;45.398;10.874;2023-05-02T03:16:47;100434.03;;;14.33;70.69
46690;BME280;32423;45.398;10.874;2023-05-02T03:19:40;100442.50;;;14.40;70.62
46690;BME280;32423;45.398;10.874;2023-05-02T03:22:32;100449.81;;;14.36;70.84
46690;BME280;32423;45.398;10.874;2023-05-02T03:25:23;100460.84;;;14.28;71.14
46690;BME280;32423;45.398;10.874;2023-05-02T03:28:13;100461.53;;;14.25;71.93
46690;BME280;32423;45.398;10.874;2023-05-02T03:31:06;100463.78;;;14.35;71.14
46690;BME280;32423;45.398;10.874;2023-05-02T03:33:59;100473.72;;;14.39;70.10
46690;BME280;32423;45.398;10.874;2023-05-02T03:36:51;100472.69;;;14.44;69.09
46690;BME280;32423;45.398;10.874;2023-05-02T03:39:43;100466.88;;;14.45;69.90
46690;BME280;32423;45.398;10.874;2023-05-02T03:42:38;100455.59;;;14.47;69.17
46690;BME280;32423;45.398;10.874;2023-05-02T03:45:38;100459.38;;;14.42;69.15
46690;BME280;32423;45.398;10.874;2023-05-02T03:48:28;100464.72;;;14.39;69.49
46690;BME280;32423;45.398;10.874;2023-05-02T03:51:18;100471.78;;;14.40;70.42
46690;BME280;32423;45.398;10.874;2023-05-02T03:54:11;100461.19;;;14.38;70.46
46690;BME280;32423;45.398;10.874;2023-05-02T03:57:04;100472.34;;;14.45;69.96
46690;BME280;32423;45.398;10.874;2023-05-02T03:59:56;100477.34;;;14.43;69.99
46690;BME280;32423;45.398;10.874;2023-05-02T04:02:48;100489.09;;;14.44;69.86
46690;BME280;32423;45.398;10.874;2023-05-02T04:05:41;100488.75;;;14.45;68.99
46690;BME280;32423;45.398;10.874;2023-05-02T04:08:33;100486.13;;;14.49;68.55
46690;BME280;32423;45.398;10.874;2023-05-02T04:11:25;100492.47;;;14.53;68.73
46690;BME280;32423;45.398;10.874;2023-05-02T04:14:17;100492.84;;;14.51;69.23
46690;BME280;32423;45.398;10.874;2023-05-02T04:17:07;100493.91;;;14.47;69.27
46690;BME280;32423;45.398;10.874;2023-05-02T04:20:05;100494.94;;;14.42;69.73
46690;BME280;32423;45.398;10.874;2023-05-02T04:22:58;100497.31;;;14.44;69.56
46690;BME280;32423;45.398;10.874;2023-05-02T04:25:56;100499.25;;;14.43;69.51
46690;BME280;32423;45.398;10.874;2023-05-02T04:28:56;100504.47;;;14.48;69.83
46690;BME280;32423;45.398;10.874;2023-05-02T04:31:45;100509.28;;;14.39;69.93
46690;BME280;32423;45.398;10.874;2023-05-02T04:34:37;100504.28;;;14.41;70.59
46690;BME280;32423;45.398;10.874;2023-05-02T04:37:29;100514.84;;;14.43;71.17
46690;BME280;32423;45.398;10.874;2023-05-02T04:40:19;100518.19;;;14.36;71.95
46690;BME280;32423;45.398;10.874;2023-05-02T04:43:13;100522.53;;;14.37;71.80
46690;BME280;32423;45.398;10.874;2023-05-02T04:46:05;100532.31;;;14.38;72.40
46690;BME280;32423;45.398;10.874;2023-05-02T04:48:58;100531.28;;;14.43;72.65
46690;BME280;32423;45.398;10.874;2023-05-02T04:51:50;100536.31;;;14.41;72.96
46690;BME280;32423;45.398;10.874;2023-05-02T04:54:41;100533.00;;;14.47;72.57
46690;BME280;32423;45.398;10.874;2023-05-02T04:57:33;100537.19;;;14.57;72.71
46690;BME280;32423;45.398;10.874;2023-05-02T05:00:25;100544.13;;;14.54;72.38
46690;BME280;32423;45.398;10.874;2023-05-02T05:03:17;100546.97;;;14.58;71.67
46690;BME280;32423;45.398;10.874;2023-05-02T05:06:09;100546.88;;;14.54;71.96
46690;BME280;32423;45.398;10.874;2023-05-02T05:09:01;100557.47;;;14.56;72.08
46690;BME280;32423;45.398;10.874;2023-05-02T05:11:56;100552.00;;;14.56;72.01
46690;BME280;32423;45.398;10.874;2023-05-02T05:14:47;100553.25;;;14.59;71.80
46690;BME280;32423;45.398;10.874;2023-05-02T05:17:40;100567.94;;;14.66;71.13
46690;BME280;32423;45.398;10.874;2023-05-02T05:20:32;100568.75;;;14.67;71.06
46690;BME280;32423;45.398;10.874;2023-05-02T05:23:24;100574.00;;;14.72;71.33
46690;BME280;32423;45.398;10.874;2023-05-02T05:26:14;100576.72;;;14.72;70.94
46690;BME280;32423;45.398;10.874;2023-05-02T05:29:05;100579.91;;;14.74;71.06
46690;BME280;32423;45.398;10.874;2023-05-02T05:32:00;100581.97;;;14.65;71.58
46690;BME280;32423;45.398;10.874;2023-05-02T05:34:52;100583.97;;;14.40;73.25
46690;BME280;32423;45.398;10.874;2023-05-02T05:37:43;100581.75;;;14.33;73.34
46690;BME280;32423;45.398;10.874;2023-05-02T05:40:36;100582.72;;;14.37;73.81
46690;BME280;32423;45.398;10.874;2023-05-02T05:43:27;100582.03;;;14.40;74.12
46690;BME280;32423;45.398;10.874;2023-05-02T05:46:20;100584.53;;;14.45;74.60
46690;BME280;32423;45.398;10.874;2023-05-02T05:49:14;100591.56;;;14.34;76.11
46690;BME280;32423;45.398;10.874;2023-05-02T05:52:03;100590.69;;;14.42;76.16
46690;BME280;32423;45.398;10.874;2023-05-02T05:54:56;100587.25;;;14.45;75.93
46690;BME280;32423;45.398;10.874;2023-05-02T05:57:48;100590.94;;;14.37;76.87
46690;BME280;32423;45.398;10.874;2023-05-02T06:00:40;100594.09;;;14.51;76.81
46690;BME280;32423;45.398;10.874;2023-05-02T06:03:29;100591.22;;;14.60;75.64
46690;BME280;32423;45.398;10.874;2023-05-02T06:06:20;100582.63;;;14.74;75.65
46690;BME280;32423;45.398;10.874;2023-05-02T06:09:11;100579.38;;;14.96;73.17
46690;BME280;32423;45.398;10.874;2023-05-02T06:12:04;100579.84;;;14.98;72.74
46690;BME280;32423;45.398;10.874;2023-05-02T06:14:53;100576.41;;;15.01;73.14
46690;BME280;32423;45.398;10.874;2023-05-02T06:17:45;100583.00;;;15.00;73.03
46690;BME280;32423;45.398;10.874;2023-05-02T06:20:37;100580.31;;;15.16;72.69
46690;BME280;32423;45.398;10.874;2023-05-02T06:23:29;100589.44;;;15.20;72.08
46690;BME280;32423;45.398;10.874;2023-05-02T06:26:19;100596.03;;;15.59;70.97
46690;BME280;32423;45.398;10.874;2023-05-02T06:29:10;100601.50;;;15.90;69.69
46690;BME280;32423;45.398;10.874;2023-05-02T06:32:00;100607.78;;;16.06;69.17
46690;BME280;32423;45.398;10.874;2023-05-02T06:34:47;100617.06;;;16.33;68.66
46690;BME280;32423;45.398;10.874;2023-05-02T06:37:39;100618.47;;;16.43;68.77
46690;BME280;32423;45.398;10.874;2023-05-02T06:40:33;100625.28;;;16.64;67.86
46690;BME280;32423;45.398;10.874;2023-05-02T06:43:24;100629.16;;;16.79;67.47
46690;BME280;32423;45.398;10.874;2023-05-02T06:46:16;100626.13;;;16.84;66.71
46690;BME280;32423;45.398;10.874;2023-05-02T06:49:08;100635.78;;;16.78;64.17
46690;BME280;32423;45.398;10.874;2023-05-02T06:52:01;100641.47;;;17.04;65.34
46690;BME280;32423;45.398;10.874;2023-05-02T06:54:53;100640.25;;;17.21;64.22
46690;BME280;32423;45.398;10.874;2023-05-02T06:57:45;100648.22;;;17.26;63.96
46690;BME280;32423;45.398;10.874;2023-05-02T07:00:34;100650.00;;;17.38;62.55
46690;BME280;32423;45.398;10.874;2023-05-02T07:03:26;100656.28;;;17.38;60.70
46690;BME280;32423;45.398;10.874;2023-05-02T07:06:18;100645.81;;;17.63;60.67
46690;BME280;32423;45.398;10.874;2023-05-02T07:09:10;100653.53;;;17.77;60.45
46690;BME280;32423;45.398;10.874;2023-05-02T07:12:02;100656.03;;;18.08;59.89
46690;BME280;32423;45.398;10.874;2023-05-02T07:14:54;100652.88;;;18.06;59.51
46690;BME280;32423;45.398;10.874;2023-05-02T07:17:46;100655.75;;;17.90;58.98
46690;BME280;32423;45.398;10.874;2023-05-02T07:20:38;100653.69;;;17.65;56.23
46690;BME280;32423;45.398;10.874;2023-05-02T07:23:30;100655.22;;;17.62;57.62
46690;BME280;32423;45.398;10.874;2023-05-02T07:26:22;100661.13;;;17.45;58.98
46690;BME280;32423;45.398;10.874;2023-05-02T07:29:14;100665.09;;;17.47;58.09
46690;BME280;32423;45.398;10.874;2023-05-02T07:32:06;100661.28;;;17.52;59.53
46690;BME280;32423;45.398;10.874;2023-05-02T07:34:59;100658.47;;;17.68;58.37
46690;BME280;32423;45.398;10.874;2023-05-02T07:37:51;100659.63;;;17.67;55.06
46690;BME280;32423;45.398;10.874;2023-05-02T07:40:43;100664.31;;;17.85;56.44
46690;BME280;32423;45.398;10.874;2023-05-02T07:43:35;100669.66;;;17.98;58.62
46690;BME280;32423;45.398;10.874;2023-05-02T07:46:27;100669.09;;;17.69;60.71
46690;BME280;32423;45.398;10.874;2023-05-02T07:49:19;100677.94;;;17.59;60.15
46690;BME280;32423;45.398;10.874;2023-05-02T07:52:11;100683.19;;;17.48;59.22
46690;BME280;32423;45.398;10.874;2023-05-02T07:55:03;100671.63;;;17.20;62.36
46690;BME280;32423;45.398;10.874;2023-05-02T07:57:55;100679.53;;;17.41;60.90
46690;BME280;32423;45.398;10.874;2023-05-02T08:00:47;100674.66;;;17.53;60.54
46690;BME280;32423;45.398;10.874;2023-05-02T08:03:39;100679.38;;;17.34;61.25
46690;BME280;32423;45.398;10.874;2023-05-02T08:06:31;100677.72;;;17.29;59.60
46690;BME280;32423;45.398;10.874;2023-05-02T08:09:23;100679.75;;;17.71;58.26
46690;BME280;32423;45.398;10.874;2023-05-02T08:12:15;100686.91;;;18.17;58.20
46690;BME280;32423;45.398;10.874;2023-05-02T08:15:08;100684.22;;;18.70;55.91
46690;BME280;32423;45.398;10.874;2023-05-02T08:18:02;100689.03;;;19.03;54.64
46690;BME280;32423;45.398;10.874;2023-05-02T08:20:54;100700.38;;;18.98;53.98
46690;BME280;32423;45.398;10.874;2023-05-02T08:23:43;100708.84;;;18.59;55.46
46690;BME280;32423;45.398;10.874;2023-05-02T08:26:35;100705.06;;;19.87;53.65
46690;BME280;32423;45.398;10.874;2023-05-02T08:29:27;100702.78;;;20.33;48.22
46690;BME280;32423;45.398;10.874;2023-05-02T08:32:19;100700.31;;;19.84;48.69
46690;BME280;32423;45.398;10.874;2023-05-02T08:35:11;100699.03;;;20.15;48.87
46690;BME280;32423;45.398;10.874;2023-05-02T08:38:03;100709.22;;;19.40;52.27
46690;BME280;32423;45.398;10.874;2023-05-02T08:40:55;100705.91;;;19.91;51.08
46690;BME280;32423;45.398;10.874;2023-05-02T08:43:47;100715.13;;;20.05;52.29
46690;BME280;32423;45.398;10.874;2023-05-02T08:46:39;100709.44;;;19.54;50.77
46690;BME280;32423;45.398;10.874;2023-05-02T08:49:31;100718.09;;;19.53;51.80
46690;BME280;32423;45.398;10.874;2023-05-02T08:52:25;100716.53;;;19.89;51.16
46690;BME280;32423;45.398;10.874;2023-05-02T08:55:17;100706.56;;;19.17;53.19
46690;BME280;32423;45.398;10.874;2023-05-02T08:58:09;100708.53;;;18.91;53.33
46690;BME280;32423;45.398;10.874;2023-05-02T09:01:01;100723.69;;;19.60;51.40
46690;BME280;32423;45.398;10.874;2023-05-02T09:03:54;100718.13;;;19.00;53.05
46690;BME280;32423;45.398;10.874;2023-05-02T09:06:43;100723.78;;;19.11;54.42
46690;BME280;32423;45.398;10.874;2023-05-02T09:09:33;100729.09;;;18.97;53.50
46690;BME280;32423;45.398;10.874;2023-05-02T09:12:25;100727.47;;;18.92;54.76
46690;BME280;32423;45.398;10.874;2023-05-02T09:15:18;100726.63;;;18.88;54.91
46690;BME280;32423;45.398;10.874;2023-05-02T09:18:18;100730.25;;;18.69;55.06
46690;BME280;32423;45.398;10.874;2023-05-02T09:21:07;100747.22;;;18.71;55.44
46690;BME280;32423;45.398;10.874;2023-05-02T09:23:59;100737.97;;;18.60;54.96
46690;BME280;32423;45.398;10.874;2023-05-02T09:26:59;100739.72;;;18.49;55.42
46690;BME280;32423;45.398;10.874;2023-05-02T09:29:51;100741.75;;;18.52;55.75
46690;BME280;32423;45.398;10.874;2023-05-02T09:32:47;100745.41;;;18.56;54.67
46690;BME280;32423;45.398;10.874;2023-05-02T09:35:39;100749.59;;;18.50;53.98
46690;BME280;32423;45.398;10.874;2023-05-02T09:38:39;100753.09;;;18.47;55.05
46690;BME280;32423;45.398;10.874;2023-05-02T09:41:28;100755.00;;;18.43;55.22
46690;BME280;32423;45.398;10.874;2023-05-02T09:44:36;100758.59;;;18.47;55.45
46690;BME280;32423;45.398;10.874;2023-05-02T09:47:28;100762.88;;;18.45;55.23
46690;BME280;32423;45.398;10.874;2023-05-02T09:50:35;100770.38;;;18.25;56.58
46690;BME280;32423;45.398;10.874;2023-05-02T09:53:27;100774.81;;;18.10;58.56
46690;BME280;32423;45.398;10.874;2023-05-02T09:56:19;100773.81;;;18.18;58.65
46690;BME280;32423;45.398;10.874;2023-05-02T09:59:14;100775.19;;;18.09;59.63
46690;BME280;32423;45.398;10.874;2023-05-02T10:02:06;100773.59;;;17.88;59.76
46690;BME280;32423;45.398;10.874;2023-05-02T10:04:58;100773.09;;;17.83;60.49
46690;BME280;32423;45.398;10.874;2023-05-02T10:07:49;100777.81;;;17.63;62.28
46690;BME280;32423;45.398;10.874;2023-05-02T10:10:40;100776.81;;;17.71;62.42
46690;BME280;32423;45.398;10.874;2023-05-02T10:13:33;100773.97;;;17.68;61.08
46690;BME280;32423;45.398;10.874;2023-05-02T10:16:28;100782.66;;;17.70;61.14
46690;BME280;32423;45.398;10.874;2023-05-02T10:19:23;100775.22;;;17.70;60.66
46690;BME280;32423;45.398;10.874;2023-05-02T10:22:14;100778.31;;;17.69;61.62
46690;BME280;32423;45.398;10.874;2023-05-02T10:25:10;100773.19;;;17.67;61.64
46690;BME280;32423;45.398;10.874;2023-05-02T10:28:02;100782.31;;;17.71;61.60
46690;BME280;32423;45.398;10.874;2023-05-02T10:30:54;100776.88;;;17.75;61.66
46690;BME280;32423;45.398;10.874;2023-05-02T10:33:41;100769.06;;;17.77;63.16
46690;BME280;32423;45.398;10.874;2023-05-02T10:36:34;100775.38;;;17.77;62.08
46690;BME280;32423;45.398;10.874;2023-05-02T10:39:26;100779.69;;;17.78;62.12
46690;BME280;32423;45.398;10.874;2023-05-02T10:42:13;100772.75;;;17.84;61.77
46690;BME280;32423;45.398;10.874;2023-05-02T10:45:06;100770.16;;;17.91;61.57
46690;BME280;32423;45.398;10.874;2023-05-02T10:48:13;100764.78;;;17.79;61.50
46690;BME280;32423;45.398;10.874;2023-05-02T10:51:03;100767.53;;;17.79;62.01
46690;BME280;32423;45.398;10.874;2023-05-02T10:53:53;100766.38;;;17.80;61.84
46690;BME280;32423;45.398;10.874;2023-05-02T10:57:02;100762.47;;;17.81;61.64
46690;BME280;32423;45.398;10.874;2023-05-02T10:59:54;100757.41;;;17.83;62.30
46690;BME280;32423;45.398;10.874;2023-05-02T11:03:03;100762.25;;;17.90;62.05
46690;BME280;32423;45.398;10.874;2023-05-02T11:06:14;100767.09;;;17.97;61.90
46690;BME280;32423;45.398;10.874;2023-05-02T11:12:07;100772.22;;;17.98;62.30
46690;BME280;32423;45.398;10.874;2023-05-02T11:14:57;100759.41;;;18.06;61.93
46690;BME280;32423;45.398;10.874;2023-05-02T11:18:04;100762.31;;;18.13;62.21
46690;BME280;32423;45.398;10.874;2023-05-02T11:21:24;100761.41;;;18.28;59.31
46690;BME280;32423;45.398;10.874;2023-05-02T11:30:20;100766.00;;;17.63;59.63
46690;BME280;32423;45.398;10.874;2023-05-02T11:33:24;100756.00;;;17.54;59.51
46690;BME280;32423;45.398;10.874;2023-05-02T11:36:16;100759.09;;;17.53;60.44
46690;BME280;32423;45.398;10.874;2023-05-02T11:39:20;100765.03;;;17.55;60.54
46690;BME280;32423;45.398;10.874;2023-05-02T11:42:10;100757.44;;;17.48;58.31
46690;BME280;32423;45.398;10.874;2023-05-02T11:45:17;100762.13;;;17.48;58.35
46690;BME280;32423;45.398;10.874;2023-05-02T11:48:09;100753.19;;;17.51;59.87
46690;BME280;32423;45.398;10.874;2023-05-02T11:51:00;100771.28;;;17.52;59.64
46690;BME280;32423;45.398;10.874;2023-05-02T11:53:53;100771.34;;;17.56;60.12
46690;BME280;32423;45.398;10.874;2023-05-02T11:56:45;100764.53;;;17.49;59.68
46690;BME280;32423;45.398;10.874;2023-05-02T11:59:52;100774.22;;;17.43;60.96
46690;BME280;32423;45.398;10.874;2023-05-02T12:02:44;100769.50;;;17.44;60.86
46690;BME280;32423;45.398;10.874;2023-05-02T12:05:37;100769.16;;;17.45;60.93
46690;BME280;32423;45.398;10.874;2023-05-02T12:08:27;100775.38;;;17.42;60.98
46690;BME280;32423;45.398;10.874;2023-05-02T12:11:19;100777.75;;;17.44;61.50
46690;BME280;32423;45.398;10.874;2023-05-02T12:14:11;100772.63;;;17.42;60.65
46690;BME280;32423;45.398;10.874;2023-05-02T12:16:58;100769.59;;;17.47;61.92
46690;BME280;32423;45.398;10.874;2023-05-02T12:19:49;100771.97;;;17.49;61.56
46690;BME280;32423;45.398;10.874;2023-05-02T12:22:41;100781.38;;;17.48;61.76
46690;BME280;32423;45.398;10.874;2023-05-02T12:25:33;100782.09;;;17.45;62.71
46690;BME280;32423;45.398;10.874;2023-05-02T12:28:24;100786.97;;;17.51;63.21
46690;BME280;32423;45.398;10.874;2023-05-02T12:31:16;100782.69;;;17.54;63.78
46690;BME280;32423;45.398;10.874;2023-05-02T12:34:08;100777.94;;;17.51;62.64
46690;BME280;32423;45.398;10.874;2023-05-02T12:36:58;100779.53;;;17.52;62.59
46690;BME280;32423;45.398;10.874;2023-05-02T12:39:50;100779.25;;;17.57;62.98
46690;BME280;32423;45.398;10.874;2023-05-02T12:42:42;100785.03;;;17.52;63.64
46690;BME280;32423;45.398;10.874;2023-05-02T12:45:48;100777.66;;;17.56;64.64
46690;BME280;32423;45.398;10.874;2023-05-02T12:48:39;100786.00;;;17.60;64.41
46690;BME280;32423;45.398;10.874;2023-05-02T12:51:31;100784.03;;;17.60;65.82
46690;BME280;32423;45.398;10.874;2023-05-02T12:54:23;100778.59;;;17.64;67.32
46690;BME280;32423;45.398;10.874;2023-05-02T12:57:24;100783.31;;;17.63;67.46
46690;BME280;32423;45.398;10.874;2023-05-02T13:00:19;100782.09;;;17.61;65.94
46690;BME280;32423;45.398;10.874;2023-05-02T13:03:11;100790.25;;;17.57;65.13
46690;BME280;32423;45.398;10.874;2023-05-02T13:06:01;100792.63;;;17.59;66.07
46690;BME280;32423;45.398;10.874;2023-05-02T13:08:53;100796.19;;;17.59;64.78
46690;BME280;32423;45.398;10.874;2023-05-02T13:11:45;100790.69;;;17.59;64.33
46690;BME280;32423;45.398;10.874;2023-05-02T13:14:37;100788.00;;;17.63;65.58
46690;BME280;32423;45.398;10.874;2023-05-02T13:17:29;100792.75;;;17.62;65.49
46690;BME280;32423;45.398;10.874;2023-05-02T13:20:21;100802.94;;;17.62;64.89
46690;BME280;32423;45.398;10.874;2023-05-02T13:23:13;100798.13;;;17.59;63.22
46690;BME280;32423;45.398;10.874;2023-05-02T13:26:05;100793.50;;;17.63;64.12
46690;BME280;32423;45.398;10.874;2023-05-02T13:28:54;100786.84;;;17.64;63.81
46690;BME280;32423;45.398;10.874;2023-05-02T13:31:46;100790.00;;;17.62;64.03
46690;BME280;32423;45.398;10.874;2023-05-02T13:34:38;100788.81;;;17.63;64.15
46690;BME280;32423;45.398;10.874;2023-05-02T13:37:30;100780.13;;;17.61;64.86
46690;BME280;32423;45.398;10.874;2023-05-02T13:40:22;100786.50;;;17.65;65.73
46690;BME280;32423;45.398;10.874;2023-05-02T13:43:15;100785.78;;;17.68;66.21
46690;BME280;32423;45.398;10.874;2023-05-02T13:46:07;100791.28;;;17.68;65.79
46690;BME280;32423;45.398;10.874;2023-05-02T13:48:59;100789.69;;;17.67;65.79
46690;BME280;32423;45.398;10.874;2023-05-02T13:51:51;100785.63;;;17.61;64.30
46690;BME280;32423;45.398;10.874;2023-05-02T13:54:43;100777.00;;;17.63;64.92
46690;BME280;32423;45.398;10.874;2023-05-02T13:57:32;100774.69;;;17.65;65.19
46690;BME280;32423;45.398;10.874;2023-05-02T14:00:24;100775.16;;;17.67;65.08
46690;BME280;32423;45.398;10.874;2023-05-02T14:03:16;100783.41;;;17.67;64.80
46690;BME280;32423;45.398;10.874;2023-05-02T14:06:03;100783.75;;;17.65;65.96
46690;BME280;32423;45.398;10.874;2023-05-02T14:08:56;100782.59;;;17.66;64.75
46690;BME280;32423;45.398;10.874;2023-05-02T14:11:46;100787.31;;;17.66;64.49
46690;BME280;32423;45.398;10.874;2023-05-02T14:14:38;100788.16;;;17.70;64.99
46690;BME280;32423;45.398;10.874;2023-05-02T14:17:27;100791.72;;;17.70;64.67
46690;BME280;32423;45.398;10.874;2023-05-02T14:20:19;100791.28;;;17.68;64.56
46690;BME280;32423;45.398;10.874;2023-05-02T14:23:09;100792.88;;;17.69;64.78
46690;BME280;32423;45.398;10.874;2023-05-02T14:25:58;100788.47;;;17.65;64.41
46690;BME280;32423;45.398;10.874;2023-05-02T14:28:50;100794.81;;;17.69;64.77
46690;BME280;32423;45.398;10.874;2023-05-02T14:31:42;100789.69;;;17.67;64.18
46690;BME280;32423;45.398;10.874;2023-05-02T14:34:34;100798.31;;;17.66;63.90
46690;BME280;32423;45.398;10.874;2023-05-02T14:37:26;100786.50;;;17.65;63.57
46690;BME280;32423;45.398;10.874;2023-05-02T14:40:16;100789.69;;;17.67;64.08
46690;BME280;32423;45.398;10.874;2023-05-02T14:43:08;100785.34;;;17.66;63.32
46690;BME280;32423;45.398;10.874;2023-05-02T14:46:00;100779.84;;;17.66;63.02
46690;BME280;32423;45.398;10.874;2023-05-02T14:48:52;100788.91;;;17.67;61.86
46690;BME280;32423;45.398;10.874;2023-05-02T14:51:44;100786.22;;;17.70;61.92
46690;BME280;32423;45.398;10.874;2023-05-02T14:54:37;100792.06;;;17.69;61.64
46690;BME280;32423;45.398;10.874;2023-05-02T14:57:29;100791.66;;;17.67;61.69
46690;BME280;32423;45.398;10.874;2023-05-02T15:00:20;100796.34;;;17.66;62.33
46690;BME280;32423;45.398;10.874;2023-05-02T15:03:07;100799.91;;;17.67;62.71
46690;BME280;32423;45.398;10.874;2023-05-02T15:05:57;100795.91;;;17.64;61.35
46690;BME280;32423;45.398;10.874;2023-05-02T15:08:47;100797.06;;;17.63;61.76
46690;BME280;32423;45.398;10.874;2023-05-02T15:11:39;100796.44;;;17.54;60.51
46690;BME280;32423;45.398;10.874;2023-05-02T15:14:31;100797.97;;;17.51;60.22
46690;BME280;32423;45.398;10.874;2023-05-02T15:17:20;100788.75;;;17.44;58.23
46690;BME280;32423;45.398;10.874;2023-05-02T15:20:12;100786.75;;;17.41;58.76